Terminal Aerodrome Forecast
Issued by NWS

Home | Current Version | Previous Version | Text Only | Print | Product List | Glossary Off
Versions: 1 2 3 4 5 6 7 8 9 10 11 12 13 14 15

000
FTUS45 KGGW 211100
TAFOLF
TAF
KOLF 211135Z 2112/2212 08006KT P6SM SKC
     FM212000 VRB05KT P6SM BKN200
     FM220400 27014G20KT P6SM BKN100=

USA.gov is the U.S. government's official web portal to all federal, state and local government web resources and services.